sensor_id;sensor_type;location;lat;lon;timestamp;P1;P2;P0
79418;PMS5003;68866;49.902;8.680;2023-04-15T00:01:31;14;14;
79418;PMS5003;68866;49.902;8.680;2023-04-15T00:11:53;14;14;
79418;PMS5003;68866;49.902;8.680;2023-04-15T00:22:16;14;14;
79418;PMS5003;68866;49.902;8.680;2023-04-15T00:32:38;10;10;
79418;PMS5003;68866;49.902;8.680;2023-04-15T00:43:00;12;12;
79418;PMS5003;68866;49.902;8.680;2023-04-15T00:53:22;14;14;
79418;PMS5003;68866;49.902;8.680;2023-04-15T01:03:46;16;16;
79418;PMS5003;68866;49.902;8.680;2023-04-15T01:14:09;12;12;
79418;PMS5003;68866;49.902;8.680;2023-04-15T01:24:31;14;14;
79418;PMS5003;68866;49.902;8.680;2023-04-15T01:29:43;16;16;
79418;PMS5003;68866;49.902;8.680;2023-04-15T01:40:06;14;14;
79418;PMS5003;68866;49.902;8.680;2023-04-15T01:50:28;14;14;
79418;PMS5003;68866;49.902;8.680;2023-04-15T02:00:50;12;12;
79418;PMS5003;68866;49.902;8.680;2023-04-15T02:11:12;10;10;
79418;PMS5003;68866;49.902;8.680;2023-04-15T02:21:34;10;10;
79418;PMS5003;68866;49.902;8.680;2023-04-15T02:31:56;14;14;
79418;PMS5003;68866;49.902;8.680;2023-04-15T02:42:18;18;18;
79418;PMS5003;68866;49.902;8.680;2023-04-15T02:52:40;32;20;
79418;PMS5003;68866;49.902;8.680;2023-04-15T03:03:03;10;10;
79418;PMS5003;68866;49.902;8.680;2023-04-15T03:13:26;16;16;
79418;PMS5003;68866;49.902;8.680;2023-04-15T03:23:48;16;16;
79418;PMS5003;68866;49.902;8.680;2023-04-15T03:34:10;16;16;
79418;PMS5003;68866;49.902;8.680;2023-04-15T03:44:32;16;16;
79418;PMS5003;68866;49.902;8.680;2023-04-15T03:49:43;16;16;
79418;PMS5003;68866;49.902;8.680;2023-04-15T04:00:06;18;18;
79418;PMS5003;68866;49.902;8.680;2023-04-15T04:10:29;28;28;
79418;PMS5003;68866;49.902;8.680;2023-04-15T04:20:51;14;14;
79418;PMS5003;68866;49.902;8.680;2023-04-15T04:31:13;32;18;
79418;PMS5003;68866;49.902;8.680;2023-04-15T04:41:34;20;20;
79418;PMS5003;68866;49.902;8.680;2023-04-15T04:51:56;12;12;
79418;PMS5003;68866;49.902;8.680;2023-04-15T05:02:19;22;22;
79418;PMS5003;68866;49.902;8.680;2023-04-15T05:12:41;14;14;
79418;PMS5003;68866;49.902;8.680;2023-04-15T05:23:03;26;26;
79418;PMS5003;68866;49.902;8.680;2023-04-15T05:33:25;14;14;
79418;PMS5003;68866;49.902;8.680;2023-04-15T05:43:47;14;14;
79418;PMS5003;68866;49.902;8.680;2023-04-15T05:54:09;28;20;
79418;PMS5003;68866;49.902;8.680;2023-04-15T06:04:31;28;28;
79418;PMS5003;68866;49.902;8.680;2023-04-15T06:09:42;14;14;
79418;PMS5003;68866;49.902;8.680;2023-04-15T06:20:04;14;14;
79418;PMS5003;68866;49.902;8.680;2023-04-15T06:30:27;34;22;
79418;PMS5003;68866;49.902;8.680;2023-04-15T06:40:49;20;20;
79418;PMS5003;68866;49.902;8.680;2023-04-15T06:51:11;14;14;
79418;PMS5003;68866;49.902;8.680;2023-04-15T07:01:32;16;16;
79418;PMS5003;68866;49.902;8.680;2023-04-15T07:11:55;30;22;
79418;PMS5003;68866;49.902;8.680;2023-04-15T07:22:16;28;28;
79418;PMS5003;68866;49.902;8.680;2023-04-15T07:43:03;44;36;
79418;PMS5003;68866;49.902;8.680;2023-04-15T07:53:26;36;36;
79418;PMS5003;68866;49.902;8.680;2023-04-15T08:03:48;24;24;
79418;PMS5003;68866;49.902;8.680;2023-04-15T08:14:09;44;38;
79418;PMS5003;68866;49.902;8.680;2023-04-15T08:24:31;40;40;
79418;PMS5003;68866;49.902;8.680;2023-04-15T08:29:43;24;24;
79418;PMS5003;68866;49.902;8.680;2023-04-15T08:50:25;32;32;
79418;PMS5003;68866;49.902;8.680;2023-04-15T09:00:51;20;20;
79418;PMS5003;68866;49.902;8.680;2023-04-15T09:11:13;36;28;
79418;PMS5003;68866;49.902;8.680;2023-04-15T09:21:35;18;18;
79418;PMS5003;68866;49.902;8.680;2023-04-15T09:31:57;12;12;
79418;PMS5003;68866;49.902;8.680;2023-04-15T09:42:30;14;14;
79418;PMS5003;68866;49.902;8.680;2023-04-15T09:52:51;14;14;
79418;PMS5003;68866;49.902;8.680;2023-04-15T10:03:14;12;12;
79418;PMS5003;68866;49.902;8.680;2023-04-15T10:13:39;8;8;
79418;PMS5003;68866;49.902;8.680;2023-04-15T10:24:02;20;20;
79418;PMS5003;68866;49.902;8.680;2023-04-15T10:34:24;14;14;
79418;PMS5003;68866;49.902;8.680;2023-04-15T10:39:40;12;12;
79418;PMS5003;68866;49.902;8.680;2023-04-15T10:50:03;16;12;
79418;PMS5003;68866;49.902;8.680;2023-04-15T11:00:27;8;8;
79418;PMS5003;68866;49.902;8.680;2023-04-15T11:10:51;16;16;
79418;PMS5003;68866;49.902;8.680;2023-04-15T11:21:14;10;10;
79418;PMS5003;68866;49.902;8.680;2023-04-15T11:31:36;10;10;
79418;PMS5003;68866;49.902;8.680;2023-04-15T11:41:58;10;10;
79418;PMS5003;68866;49.902;8.680;2023-04-15T11:52:20;10;10;
79418;PMS5003;68866;49.902;8.680;2023-04-15T12:02:42;6;6;
79418;PMS5003;68866;49.902;8.680;2023-04-15T12:13:05;10;10;
79418;PMS5003;68866;49.902;8.680;2023-04-15T12:23:27;16;16;
79418;PMS5003;68866;49.902;8.680;2023-04-15T12:33:48;14;14;
79418;PMS5003;68866;49.902;8.680;2023-04-15T12:44:10;14;14;
79418;PMS5003;68866;49.902;8.680;2023-04-15T12:54:32;12;12;
79418;PMS5003;68866;49.902;8.680;2023-04-15T12:59:44;36;24;
79418;PMS5003;68866;49.902;8.680;2023-04-15T13:10:06;10;10;
79418;PMS5003;68866;49.902;8.680;2023-04-15T13:20:28;18;18;
79418;PMS5003;68866;49.902;8.680;2023-04-15T13:30:50;28;20;
79418;PMS5003;68866;49.902;8.680;2023-04-15T13:41:12;22;14;
79418;PMS5003;68866;49.902;8.680;2023-04-15T13:51:34;12;12;
79418;PMS5003;68866;49.902;8.680;2023-04-15T14:01:56;18;10;
79418;PMS5003;68866;49.902;8.680;2023-04-15T14:12:18;10;10;
79418;PMS5003;68866;49.902;8.680;2023-04-15T14:22:40;10;10;
79418;PMS5003;68866;49.902;8.680;2023-04-15T14:33:02;8;8;
79418;PMS5003;68866;49.902;8.680;2023-04-15T14:43:24;8;8;
79418;PMS5003;68866;49.902;8.680;2023-04-15T14:53:46;12;12;
79418;PMS5003;68866;49.902;8.680;2023-04-15T15:04:09;18;18;
79418;PMS5003;68866;49.902;8.680;2023-04-15T15:14:31;10;10;
79418;PMS5003;68866;49.902;8.680;2023-04-15T15:19:43;8;8;
79418;PMS5003;68866;49.902;8.680;2023-04-15T15:30:05;8;8;
79418;PMS5003;68866;49.902;8.680;2023-04-15T15:40:28;12;12;
79418;PMS5003;68866;49.902;8.680;2023-04-15T15:50:50;10;10;
79418;PMS5003;68866;49.902;8.680;2023-04-15T16:01:12;16;16;
79418;PMS5003;68866;49.902;8.680;2023-04-15T16:11:34;6;6;
79418;PMS5003;68866;49.902;8.680;2023-04-15T16:21:56;10;10;
79418;PMS5003;68866;49.902;8.680;2023-04-15T16:32:20;10;10;
79418;PMS5003;68866;49.902;8.680;2023-04-15T16:42:42;16;8;
79418;PMS5003;68866;49.902;8.680;2023-04-15T16:53:04;14;14;
79418;PMS5003;68866;49.902;8.680;2023-04-15T17:03:25;12;12;
79418;PMS5003;68866;49.902;8.680;2023-04-15T17:13:47;12;12;
79418;PMS5003;68866;49.902;8.680;2023-04-15T17:24:09;14;14;
79418;PMS5003;68866;49.902;8.680;2023-04-15T17:34:31;16;16;
79418;PMS5003;68866;49.902;8.680;2023-04-15T17:39:43;16;16;
79418;PMS5003;68866;49.902;8.680;2023-04-15T17:50:06;26;26;
79418;PMS5003;68866;49.902;8.680;2023-04-15T18:00:29;14;14;
79418;PMS5003;68866;49.902;8.680;2023-04-15T18:10:50;22;22;
79418;PMS5003;68866;49.902;8.680;2023-04-15T18:21:12;22;22;
79418;PMS5003;68866;49.902;8.680;2023-04-15T18:31:34;24;24;
79418;PMS5003;68866;49.902;8.680;2023-04-15T18:41:56;20;20;
79418;PMS5003;68866;49.902;8.680;2023-04-15T18:52:18;28;18;
79418;PMS5003;68866;49.902;8.680;2023-04-15T19:02:41;20;20;
79418;PMS5003;68866;49.902;8.680;2023-04-15T19:13:02;22;22;
79418;PMS5003;68866;49.902;8.680;2023-04-15T19:23:24;36;36;
79418;PMS5003;68866;49.902;8.680;2023-04-15T19:33:46;30;30;
79418;PMS5003;68866;49.902;8.680;2023-04-15T19:44:08;20;20;
79418;PMS5003;68866;49.902;8.680;2023-04-15T19:54:30;20;20;
79418;PMS5003;68866;49.902;8.680;2023-04-15T19:59:42;26;26;
79418;PMS5003;68866;49.902;8.680;2023-04-15T20:10:04;32;32;
79418;PMS5003;68866;49.902;8.680;2023-04-15T20:20:26;24;24;
79418;PMS5003;68866;49.902;8.680;2023-04-15T20:30:48;18;18;
79418;PMS5003;68866;49.902;8.680;2023-04-15T20:41:09;26;26;
79418;PMS5003;68866;49.902;8.680;2023-04-15T20:51:31;18;18;
79418;PMS5003;68866;49.902;8.680;2023-04-15T21:01:53;24;24;
79418;PMS5003;68866;49.902;8.680;2023-04-15T21:12:15;30;30;
79418;PMS5003;68866;49.902;8.680;2023-04-15T21:22:37;22;22;
79418;PMS5003;68866;49.902;8.680;2023-04-15T21:32:59;36;18;
79418;PMS5003;68866;49.902;8.680;2023-04-15T21:43:21;24;24;
79418;PMS5003;68866;49.902;8.680;2023-04-15T21:53:42;22;22;
79418;PMS5003;68866;49.902;8.680;2023-04-15T22:04:04;28;28;
79418;PMS5003;68866;49.902;8.680;2023-04-15T22:14:26;18;18;
79418;PMS5003;68866;49.902;8.680;2023-04-15T22:19:39;28;28;
79418;PMS5003;68866;49.902;8.680;2023-04-15T22:30:01;20;20;
79418;PMS5003;68866;49.902;8.680;2023-04-15T22:40:23;14;14;
79418;PMS5003;68866;49.902;8.680;2023-04-15T22:50:45;24;24;
79418;PMS5003;68866;49.902;8.680;2023-04-15T23:01:07;18;18;
79418;PMS5003;68866;49.902;8.680;2023-04-15T23:11:29;28;28;
79418;PMS5003;68866;49.902;8.680;2023-04-15T23:21:50;22;22;
79418;PMS5003;68866;49.902;8.680;2023-04-15T23:32:13;38;28;
79418;PMS5003;68866;49.902;8.680;2023-04-15T23:42:35;32;32;
79418;PMS5003;68866;49.902;8.680;2023-04-15T23:52:56;28;28;
